TimeEST,TemperatureF,Dew PointF,Humidity,Sea Level PressureIn,VisibilityMPH,Wind Direction,Wind SpeedMPH,Gust SpeedMPH,PrecipitationIn,Events,Conditions,WindDirDegrees,DateUTC
12:53 AM,23.0,23.0,100,30.31,7.0,Calm,Calm,-,N/A,,Clear,0,2012-12-12 05:53:00
1:53 AM,23.0,23.0,100,30.32,4.0,Calm,Calm,-,N/A,,Clear,0,2012-12-12 06:53:00
2:53 AM,23.0,23.0,100,30.33,4.0,Calm,Calm,-,N/A,,Clear,0,2012-12-12 07:53:00
3:53 AM,23.0,23.0,100,30.35,6.0,Calm,Calm,-,N/A,,Clear,0,2012-12-12 08:53:00
4:53 AM,21.0,21.0,100,30.37,4.0,Calm,Calm,-,N/A,,Clear,0,2012-12-12 09:53:00
5:53 AM,21.9,21.9,100,30.38,4.0,Calm,Calm,-,N/A,,Clear,0,2012-12-12 10:53:00
6:00 AM,21.2,21.2,100,30.36,4.0,Calm,Calm,-,N/A,,Partly Cloudy,0,2012-12-12 11:00:00
6:38 AM,23.0,21.2,93,30.38,2.5,Calm,Calm,-,N/A,,Mostly Cloudy,0,2012-12-12 11:38:00
6:43 AM,23.0,23.0,100,30.38,0.8,Calm,Calm,-,N/A,,Mist,0,2012-12-12 11:43:00
6:53 AM,23.0,23.0,100,30.41,0.2,Calm,Calm,-,N/A,Fog,Light Freezing Fog,0,2012-12-12 11:53:00
7:31 AM,21.2,21.2,100,30.40,0.5,Calm,Calm,-,N/A,Fog,Light Freezing Fog,0,2012-12-12 12:31:00
7:53 AM,21.0,21.0,100,30.42,0.2,Calm,Calm,-,N/A,Fog,Light Freezing Fog,0,2012-12-12 12:53:00
8:25 AM,21.2,21.2,100,30.41,0.8,Calm,Calm,-,N/A,,Mostly Cloudy,0,2012-12-12 13:25:00
8:49 AM,24.8,23.0,93,30.41,2.0,Calm,Calm,-,N/A,,Partly Cloudy,0,2012-12-12 13:49:00
8:53 AM,24.1,23.0,96,30.44,2.0,Calm,Calm,-,N/A,,Clear,0,2012-12-12 13:53:00
9:10 AM,24.8,24.8,100,30.42,3.0,Calm,Calm,-,N/A,,Clear,0,2012-12-12 14:10:00
9:53 AM,28.0,27.0,96,30.44,4.0,Calm,Calm,-,N/A,,Clear,0,2012-12-12 14:53:00
10:53 AM,30.9,28.9,92,30.45,9.0,Calm,Calm,-,N/A,,Clear,0,2012-12-12 15:53:00
11:53 AM,37.0,28.9,73,30.45,10.0,SSW,4.6,-,N/A,,Clear,200,2012-12-12 16:53:00
12:53 PM,39.9,27.0,60,30.41,10.0,Calm,Calm,-,N/A,,Clear,0,2012-12-12 17:53:00
1:53 PM,42.1,27.0,55,30.39,10.0,WNW,3.5,-,N/A,,Clear,290,2012-12-12 18:53:00
2:53 PM,44.1,25.0,47,30.39,10.0,NNW,4.6,-,N/A,,Clear,330,2012-12-12 19:53:00
3:53 PM,44.1,24.1,45,30.39,10.0,Calm,Calm,-,N/A,,Clear,0,2012-12-12 20:53:00
4:53 PM,41.0,24.1,51,30.39,10.0,ENE,3.5,-,N/A,,Clear,60,2012-12-12 21:53:00
5:53 PM,35.1,26.1,70,30.40,10.0,Calm,Calm,-,N/A,,Clear,0,2012-12-12 22:53:00
6:53 PM,32.0,27.0,82,30.41,10.0,Calm,Calm,-,N/A,,Clear,0,2012-12-12 23:53:00
7:53 PM,30.0,28.0,92,30.43,10.0,Calm,Calm,-,N/A,,Clear,0,2012-12-13 00:53:00
8:53 PM,27.0,26.1,96,30.43,10.0,Calm,Calm,-,N/A,,Clear,0,2012-12-13 01:53:00
9:53 PM,28.0,27.0,96,30.43,10.0,Calm,Calm,-,N/A,,Clear,0,2012-12-13 02:53:00
10:53 PM,26.1,26.1,100,30.43,10.0,Calm,Calm,-,N/A,,Clear,0,2012-12-13 03:53:00
11:53 PM,25.0,25.0,100,30.43,5.0,NE,3.5,-,N/A,,Clear,50,2012-12-13 04:53:00